createdAt,value
2018-04-16T00:01:52.194Z,91.30
2018-04-16T00:04:19.758Z,91.40
2018-04-16T00:06:47.294Z,91.40
2018-04-16T00:09:14.831Z,91.10
2018-04-16T00:11:43.099Z,91.50
2018-04-16T00:14:11.466Z,91.60
2018-04-16T00:16:39.075Z,91.70
2018-04-16T00:19:06.615Z,91.80
2018-04-16T00:21:34.207Z,91.90
2018-04-16T00:24:01.772Z,90.80
2018-04-16T00:26:29.312Z,91.70
2018-04-16T00:28:57.626Z,92.30
2018-04-16T00:31:30.876Z,92.20
2018-04-16T00:34:14.266Z,91.80
2018-04-16T00:36:47.546Z,91.80
2018-04-16T00:39:20.807Z,91.50
2018-04-16T00:41:54.802Z,91.30
2018-04-16T00:44:27.940Z,91.30
2018-04-16T00:47:01.061Z,91.10
2018-04-16T00:49:35.980Z,91.20
2018-04-16T00:52:10.065Z,91.20
2018-04-16T00:54:44.061Z,91.10
2018-04-16T00:57:18.879Z,90.60
2018-04-16T00:59:52.787Z,90.70
2018-04-16T01:02:26.636Z,90.50
2018-04-16T01:05:01.803Z,90.40
2018-04-16T01:07:35.982Z,90.60
2018-04-16T01:10:09.178Z,90.30
2018-04-16T01:12:42.425Z,90.10
2018-04-16T01:15:15.594Z,90.40
2018-04-16T01:17:48.749Z,90.90
2018-04-16T01:20:23.825Z,90.70
2018-04-16T01:22:58.059Z,90.70
2018-04-16T01:25:31.198Z,90.50
2018-04-16T01:31:09.217Z,90.50
2018-04-16T01:33:44.261Z,90.40
2018-04-16T01:36:17.408Z,90.20
2018-04-16T01:38:50.641Z,90.90
2018-04-16T01:41:24.132Z,90.40
2018-04-16T01:43:59.208Z,89.50
2018-04-16T01:46:32.615Z,88.90
2018-04-16T01:49:06.680Z,89.10
2018-04-16T01:51:39.923Z,89.80
2018-04-16T01:54:14.076Z,89.50
2018-04-16T01:56:47.231Z,89.70
2018-04-16T01:59:20.495Z,90.10
2018-04-16T02:01:53.813Z,90.10
2018-04-16T02:04:27.835Z,90.30
2018-04-16T02:07:01.822Z,90.30
2018-04-16T02:09:35.885Z,90.30
2018-04-16T02:12:09.781Z,90.60
2018-04-16T02:14:42.816Z,90.60
2018-04-16T02:17:16.905Z,90.90
2018-04-16T02:19:51.073Z,91.70
2018-04-16T02:22:26.159Z,91.80
2018-04-16T02:24:59.281Z,92.60
2018-04-16T02:27:33.561Z,92.40
2018-04-16T02:30:08.485Z,92.70
2018-04-16T02:32:41.553Z,92.70
2018-04-16T02:35:14.875Z,92.90
2018-04-16T02:37:50.755Z,92.60
2018-04-16T02:40:34.019Z,92.60
2018-04-16T02:43:07.093Z,92.10
2018-04-16T02:45:40.200Z,91.70
2018-04-16T02:48:13.322Z,92.00
2018-04-16T02:50:47.242Z,91.80
2018-04-16T02:53:20.464Z,91.80
2018-04-16T02:55:54.657Z,92.10
2018-04-16T02:58:27.701Z,92.20
2018-04-16T03:01:02.827Z,92.20
2018-04-16T03:03:36.048Z,92.30
2018-04-16T03:06:09.894Z,93.10
2018-04-16T03:08:42.981Z,93.10
2018-04-16T03:11:16.460Z,93.10
2018-04-16T03:13:49.746Z,93.20
2018-04-16T03:16:22.886Z,93.50
2018-04-16T03:18:56.351Z,93.40
2018-04-16T03:21:31.445Z,93.40
2018-04-16T03:24:04.537Z,93.80
2018-04-16T03:26:37.892Z,93.60
2018-04-16T03:29:12.978Z,94.00
2018-04-16T03:31:46.257Z,95.40
2018-04-16T03:34:39.153Z,94.30
2018-04-16T03:40:04.109Z,94.50
2018-04-16T03:42:37.433Z,94.80
2018-04-16T03:45:10.666Z,95.30
2018-04-16T03:47:43.896Z,95.40
2018-04-16T03:50:16.982Z,96.00
2018-04-16T03:52:50.098Z,96.00
2018-04-16T03:55:23.384Z,96.90
2018-04-16T03:58:08.837Z,97.20
2018-04-16T04:00:38.127Z,96.90
2018-04-16T04:03:05.626Z,96.90
2018-04-16T04:08:15.473Z,99.90
2018-04-16T04:10:43.008Z,99.90
2018-04-16T04:13:11.554Z,99.90
2018-04-16T04:15:41.820Z,99.90
2018-04-16T04:18:09.728Z,99.90
2018-04-16T04:20:37.374Z,99.90
2018-04-16T04:23:16.707Z,99.90
2018-04-16T04:25:56.181Z,99.90
2018-04-16T04:28:35.526Z,99.90
2018-04-16T04:31:04.013Z,99.90
2018-04-16T04:33:31.524Z,99.90
2018-04-16T04:35:59.102Z,99.90
2018-04-16T04:38:26.653Z,99.90
2018-04-16T04:40:55.122Z,99.90
2018-04-16T04:43:23.460Z,99.90
2018-04-16T04:45:51.538Z,99.90
2018-04-16T04:48:20.012Z,99.90
2018-04-16T04:50:48.548Z,99.90
2018-04-16T04:53:16.829Z,99.90
2018-04-16T04:55:46.042Z,99.90
2018-04-16T04:58:14.797Z,99.90
2018-04-16T05:00:42.407Z,99.90
2018-04-16T05:03:10.066Z,99.90
2018-04-16T05:05:37.627Z,99.90
2018-04-16T05:08:06.063Z,99.90
2018-04-16T05:10:53.272Z,99.90
2018-04-16T05:13:20.788Z,99.90
2018-04-16T05:18:29.398Z,99.90
2018-04-16T05:20:59.936Z,99.90
2018-04-16T05:23:27.433Z,99.90
2018-04-16T05:25:55.103Z,99.90
2018-04-16T05:28:23.881Z,99.90
2018-04-16T05:30:52.298Z,99.90
2018-04-16T05:33:19.895Z,99.90
2018-04-16T05:35:47.532Z,99.90
2018-04-16T05:38:15.209Z,99.90
2018-04-16T05:40:42.832Z,99.90
2018-04-16T05:43:10.532Z,99.90
2018-04-16T05:45:38.968Z,99.90
2018-04-16T05:48:08.182Z,99.90
2018-04-16T05:50:36.707Z,99.90
2018-04-16T05:53:04.271Z,99.90
2018-04-16T05:55:32.004Z,99.90
2018-04-16T05:57:59.535Z,99.90
2018-04-16T06:00:27.594Z,99.90
2018-04-16T06:02:57.137Z,99.90
2018-04-16T06:05:25.514Z,99.90
2018-04-16T06:07:54.013Z,99.90
2018-04-16T06:10:23.247Z,99.90
2018-04-16T06:12:50.764Z,99.90
2018-04-16T06:15:19.113Z,99.90
2018-04-16T06:18:04.535Z,99.90
2018-04-16T06:23:13.256Z,99.90
2018-04-16T06:25:41.858Z,99.90
2018-04-16T06:28:10.162Z,99.90
2018-04-16T06:30:38.641Z,99.90
2018-04-16T06:33:06.161Z,99.90
2018-04-16T06:35:33.811Z,99.90
2018-04-16T06:38:01.370Z,99.90
2018-04-16T06:40:49.467Z,99.90
2018-04-16T06:43:17.321Z,99.90
2018-04-16T06:45:45.645Z,99.90
2018-04-16T06:51:11.433Z,99.90
2018-04-16T06:53:40.912Z,99.90
2018-04-16T06:56:08.474Z,99.90
2018-04-16T06:58:35.997Z,99.90
2018-04-16T07:01:03.570Z,99.90
2018-04-16T07:03:32.481Z,99.90
2018-04-16T07:06:00.981Z,99.90
2018-04-16T07:08:28.745Z,99.90
2018-04-16T07:10:56.356Z,99.90
2018-04-16T07:13:23.934Z,99.90
2018-04-16T07:18:49.882Z,99.90
2018-04-16T07:21:17.401Z,99.90
2018-04-16T07:23:46.861Z,99.90
2018-04-16T07:26:15.381Z,99.90
2018-04-16T07:28:43.043Z,99.90
2018-04-16T07:31:12.557Z,99.90
2018-04-16T07:33:40.716Z,99.90
2018-04-16T07:36:10.152Z,99.90
2018-04-16T07:38:37.680Z,99.90
2018-04-16T07:41:06.141Z,99.90
2018-04-16T07:43:34.749Z,99.90
2018-04-16T07:46:02.323Z,99.90
2018-04-16T07:48:29.924Z,99.90
2018-04-16T07:50:57.466Z,99.90
2018-04-16T07:53:26.911Z,99.90
2018-04-16T07:55:55.189Z,99.90
2018-04-16T07:58:25.979Z,99.90
2018-04-16T08:00:53.551Z,99.90
2018-04-16T08:03:21.090Z,99.90
2018-04-16T08:05:48.774Z,99.90
2018-04-16T08:08:16.340Z,99.90
2018-04-16T08:10:43.843Z,99.90
2018-04-16T08:13:11.438Z,99.90
2018-04-16T08:15:39.928Z,99.90
2018-04-16T08:18:07.471Z,99.90
2018-04-16T08:20:36.717Z,99.90
2018-04-16T08:26:02.393Z,99.90
2018-04-16T08:28:29.920Z,99.90
2018-04-16T08:30:57.498Z,99.90
2018-04-16T08:33:45.699Z,99.90
2018-04-16T08:38:57.084Z,99.90
2018-04-16T08:41:24.682Z,99.90
2018-04-16T08:44:13.054Z,99.90
2018-04-16T08:46:40.672Z,99.90
2018-04-16T08:52:08.387Z,99.90
2018-04-16T08:54:36.435Z,99.90
2018-04-16T08:57:03.932Z,99.90
2018-04-16T08:59:50.311Z,99.90
2018-04-16T09:02:17.960Z,99.90
2018-04-16T09:07:25.872Z,99.90
2018-04-16T09:09:53.470Z,99.90
2018-04-16T09:12:21.923Z,99.90
2018-04-16T09:14:51.063Z,99.90
2018-04-16T09:17:18.613Z,99.90
2018-04-16T09:19:46.099Z,99.90
2018-04-16T09:22:13.848Z,99.90
2018-04-16T09:24:41.370Z,99.90
2018-04-16T09:27:10.840Z,99.90
2018-04-16T09:29:38.420Z,99.90
2018-04-16T09:32:06.944Z,99.90
2018-04-16T09:34:34.532Z,99.90
2018-04-16T09:37:02.130Z,99.90
2018-04-16T09:39:29.688Z,99.90
2018-04-16T09:41:57.969Z,99.90
2018-04-16T09:44:46.396Z,99.90
2018-04-16T09:47:13.912Z,99.90
2018-04-16T09:49:41.469Z,99.90
2018-04-16T09:52:09.035Z,99.90
2018-04-16T09:54:37.507Z,99.90
2018-04-16T09:57:05.947Z,99.70
2018-04-16T09:59:34.445Z,99.90
2018-04-16T10:02:17.791Z,99.90
2018-04-16T10:04:46.171Z,99.90
2018-04-16T10:07:15.468Z,99.60
2018-04-16T10:09:43.773Z,99.90
2018-04-16T10:12:11.402Z,99.90
2018-04-16T10:14:38.999Z,99.60
2018-04-16T10:17:08.358Z,99.60
2018-04-16T10:19:35.907Z,99.60
2018-04-16T10:22:04.401Z,99.90
2018-04-16T10:24:31.929Z,98.00
2018-04-16T10:26:59.486Z,98.80
2018-04-16T10:29:27.782Z,99.90
2018-04-16T10:31:56.226Z,99.90
2018-04-16T10:34:25.521Z,99.90
2018-04-16T10:37:11.796Z,99.90
2018-04-16T10:39:40.262Z,99.90
2018-04-16T10:42:07.785Z,99.90
2018-04-16T10:44:36.045Z,99.90
2018-04-16T10:47:04.559Z,99.90
2018-04-16T10:49:35.778Z,99.40
2018-04-16T10:52:03.303Z,99.30
2018-04-16T10:54:32.818Z,99.90
2018-04-16T10:57:00.388Z,99.90
2018-04-16T10:59:27.967Z,99.20
2018-04-16T11:01:55.562Z,99.60
2018-04-16T11:04:23.860Z,99.90
2018-04-16T11:06:53.098Z,98.10
2018-04-16T11:09:21.675Z,98.10
2018-04-16T11:11:49.242Z,99.30
2018-04-16T11:14:18.716Z,98.60
2018-04-16T11:16:46.522Z,99.60
2018-04-16T11:19:14.083Z,99.90
2018-04-16T11:21:41.627Z,99.60
2018-04-16T11:24:09.908Z,95.80
2018-04-16T11:26:37.440Z,95.90
2018-04-16T11:29:06.147Z,97.10
2018-04-16T11:31:33.669Z,97.10
2018-04-16T11:34:02.166Z,96.30
2018-04-16T11:36:31.716Z,96.90
2018-04-16T11:38:59.350Z,96.60
2018-04-16T11:41:26.864Z,97.10
2018-04-16T11:43:54.495Z,95.40
2018-04-16T11:46:22.049Z,97.90
2018-04-16T11:48:49.599Z,95.50
2018-04-16T11:51:17.191Z,94.80
2018-04-16T11:53:44.755Z,94.80
2018-04-16T11:56:12.296Z,94.90
2018-04-16T11:58:39.850Z,95.90
2018-04-16T12:01:10.412Z,96.20
2018-04-16T12:03:37.930Z,94.10
2018-04-16T12:06:05.532Z,98.30
2018-04-16T12:08:33.122Z,97.90
2018-04-16T12:11:00.700Z,98.00
2018-04-16T12:13:28.384Z,97.80
2018-04-16T12:15:57.904Z,97.60
2018-04-16T12:18:27.396Z,98.70
2018-04-16T12:20:54.952Z,97.00
2018-04-16T12:23:24.506Z,98.00
2018-04-16T12:25:53.063Z,97.40
2018-04-16T12:28:20.588Z,97.60
2018-04-16T12:30:50.056Z,96.80
2018-04-16T12:33:18.588Z,97.60
2018-04-16T12:35:46.919Z,95.70
2018-04-16T12:38:33.237Z,95.50
2018-04-16T12:44:04.121Z,96.20
2018-04-16T12:46:32.709Z,97.50
2018-04-16T12:49:01.008Z,94.20
2018-04-16T12:51:29.571Z,94.30
2018-04-16T12:53:57.851Z,94.10
2018-04-16T12:56:26.158Z,94.60
2018-04-16T12:58:59.736Z,94.70
2018-04-16T13:01:47.742Z,93.30
2018-04-16T13:04:15.295Z,93.20
2018-04-16T13:06:43.793Z,93.30
2018-04-16T13:09:13.283Z,93.10
2018-04-16T13:11:41.747Z,93.50
2018-04-16T13:14:09.296Z,93.50
2018-04-16T13:16:36.828Z,92.80
2018-04-16T13:19:05.324Z,94.70
2018-04-16T13:21:33.597Z,93.00
2018-04-16T13:24:01.875Z,95.10
2018-04-16T13:26:31.411Z,95.10
2018-04-16T13:28:59.906Z,94.00
2018-04-16T13:31:29.410Z,94.90
2018-04-16T13:33:58.491Z,95.20
2018-04-16T13:36:26.818Z,94.30
2018-04-16T13:38:55.252Z,94.20
2018-04-16T13:41:22.828Z,95.00
2018-04-16T13:43:52.048Z,96.40
2018-04-16T13:46:19.737Z,96.40
2018-04-16T13:48:48.256Z,95.40
2018-04-16T13:51:15.817Z,94.70
2018-04-16T13:53:44.375Z,95.40
2018-04-16T13:56:11.993Z,95.30
2018-04-16T13:58:59.039Z,96.80
2018-04-16T14:01:26.809Z,96.80
2018-04-16T14:03:54.318Z,95.40
2018-04-16T14:06:21.866Z,93.30
2018-04-16T17:50:43.412Z,99.90
2018-04-16T17:53:11.875Z,99.90
2018-04-16T17:55:39.494Z,99.90
2018-04-16T17:58:08.936Z,99.90
2018-04-16T18:00:36.468Z,99.90
2018-04-16T18:03:03.957Z,99.90
2018-04-16T18:05:31.552Z,99.90
2018-04-16T18:07:59.898Z,99.90
2018-04-16T18:10:28.341Z,99.90
2018-04-16T18:12:56.015Z,99.90
2018-04-16T18:15:23.551Z,99.90
2018-04-16T18:17:51.161Z,99.90
2018-04-16T18:20:19.494Z,99.90
2018-04-16T18:22:47.040Z,99.90
2018-04-16T18:25:14.596Z,99.90
2018-04-16T18:27:43.111Z,99.90
2018-04-16T18:30:10.726Z,99.90
2018-04-16T18:32:39.012Z,99.90
2018-04-16T18:35:07.305Z,99.90
2018-04-16T18:37:35.657Z,99.90
2018-04-16T18:40:03.210Z,99.90
2018-04-16T18:42:31.656Z,99.90
2018-04-16T18:44:59.205Z,99.90
2018-04-16T18:47:26.809Z,99.90
2018-04-16T18:49:56.292Z,99.90
2018-04-16T18:52:23.847Z,99.90
2018-04-16T18:54:51.362Z,99.90
2018-04-16T18:57:19.896Z,99.90
2018-04-16T18:59:47.502Z,99.90
2018-04-16T19:02:16.000Z,99.90
2018-04-16T19:04:43.574Z,99.90
2018-04-16T19:07:11.090Z,99.90
2018-04-16T19:09:38.616Z,99.90
2018-04-16T19:12:06.129Z,99.90
2018-04-16T19:14:33.754Z,99.90
2018-04-16T19:17:01.272Z,99.90
2018-04-16T19:19:28.878Z,99.90
2018-04-16T19:21:58.141Z,99.90
2018-04-16T19:24:25.681Z,99.90
2018-04-16T19:27:00.877Z,99.90
2018-04-16T19:29:28.402Z,99.90
2018-04-16T19:31:55.928Z,99.90
2018-04-16T19:34:40.919Z,99.90
2018-04-16T19:37:08.444Z,99.90
2018-04-16T19:39:36.013Z,99.90
2018-04-16T19:42:09.986Z,99.90
2018-04-16T19:44:37.498Z,99.90
2018-04-16T19:47:05.035Z,99.90
2018-04-16T19:49:38.306Z,99.90
2018-04-16T19:52:05.870Z,99.90
2018-04-16T19:54:34.320Z,99.90
2018-04-16T19:57:07.536Z,99.90
2018-04-16T19:59:35.802Z,99.90
2018-04-16T20:02:10.548Z,99.90
2018-04-16T20:04:38.061Z,99.90
2018-04-16T20:07:06.322Z,99.90
2018-04-16T20:09:35.338Z,99.90
2018-04-16T20:12:03.617Z,99.90
2018-04-16T20:14:31.900Z,99.90
2018-04-16T20:17:00.198Z,99.90
2018-04-16T20:19:27.761Z,99.90
2018-04-16T20:21:55.342Z,99.90
2018-04-16T20:24:23.810Z,99.90
2018-04-16T20:26:52.230Z,99.90
2018-04-16T20:29:19.794Z,99.90
2018-04-16T20:31:47.450Z,99.90
2018-04-16T20:34:15.823Z,99.90
2018-04-16T20:36:43.316Z,99.90
2018-04-16T20:39:10.861Z,99.90
2018-04-16T20:41:38.456Z,99.90
2018-04-16T20:44:05.987Z,99.90
2018-04-16T20:46:33.611Z,99.90
2018-04-16T20:49:01.196Z,99.90
2018-04-16T20:51:28.794Z,99.90
2018-04-16T20:53:56.391Z,99.90
2018-04-16T20:56:24.059Z,99.90
2018-04-16T20:58:51.629Z,99.90
2018-04-16T21:01:20.183Z,99.90
2018-04-16T21:03:47.777Z,99.90
2018-04-16T21:06:15.355Z,99.90
2018-04-16T21:08:42.941Z,99.90
2018-04-16T21:11:13.194Z,99.90
2018-04-16T21:13:40.772Z,99.90
2018-04-16T21:16:08.306Z,99.90
2018-04-16T21:18:36.735Z,99.90
2018-04-16T21:21:04.251Z,99.90
2018-04-16T21:23:31.789Z,99.90
2018-04-16T21:28:57.229Z,99.90
2018-04-16T21:31:24.916Z,99.90
2018-04-16T21:33:53.390Z,99.90
2018-04-16T21:36:20.954Z,99.90
2018-04-16T21:38:48.578Z,99.90
2018-04-16T21:41:16.077Z,99.90
2018-04-16T21:43:43.601Z,99.90
2018-04-16T21:46:11.139Z,99.90
2018-04-16T21:48:38.729Z,99.90
2018-04-16T21:51:06.247Z,99.90
2018-04-16T21:53:34.391Z,99.90
2018-04-16T21:56:01.896Z,99.90
2018-04-16T21:58:29.440Z,99.90
2018-04-16T22:00:56.984Z,99.90
2018-04-16T22:03:24.595Z,99.90
2018-04-16T22:05:52.398Z,99.90
2018-04-16T22:08:20.035Z,99.90
2018-04-16T22:10:48.453Z,99.90
2018-04-16T22:13:16.093Z,99.90
2018-04-16T22:15:43.768Z,99.90
2018-04-16T22:18:11.394Z,99.90
2018-04-16T22:20:39.120Z,99.90
2018-04-16T22:23:06.791Z,99.90
2018-04-16T22:25:34.428Z,99.90
2018-04-16T22:28:02.099Z,99.90
2018-04-16T22:30:30.814Z,99.90
2018-04-16T22:32:58.526Z,99.90
2018-04-16T22:35:26.172Z,99.90
2018-04-16T22:37:54.570Z,99.90
2018-04-16T22:40:23.184Z,99.90
2018-04-16T22:42:50.850Z,99.90
2018-04-16T22:45:18.482Z,99.90
2018-04-16T22:47:47.123Z,99.90
2018-04-16T22:50:15.569Z,99.90
2018-04-16T22:52:43.197Z,99.90
2018-04-16T22:55:10.896Z,99.90
2018-04-16T22:57:38.725Z,99.90
2018-04-16T23:00:06.425Z,99.90
2018-04-16T23:02:34.842Z,99.90
2018-04-16T23:05:02.492Z,99.90
2018-04-16T23:07:30.119Z,99.90
2018-04-16T23:09:57.761Z,99.90
2018-04-16T23:12:25.521Z,99.90
2018-04-16T23:14:53.197Z,99.90
2018-04-16T23:17:20.812Z,99.90
2018-04-16T23:19:49.236Z,99.90
2018-04-16T23:22:16.822Z,99.90
2018-04-16T23:24:45.308Z,99.90
2018-04-16T23:27:13.055Z,99.90
2018-04-16T23:29:41.380Z,99.90
2018-04-16T23:32:09.888Z,99.90
2018-04-16T23:34:39.222Z,99.90
2018-04-16T23:37:06.803Z,99.90
2018-04-16T23:39:34.409Z,99.90
2018-04-16T23:42:02.819Z,99.90
2018-04-16T23:44:31.346Z,99.90
2018-04-16T23:47:00.967Z,99.90
2018-04-16T23:49:28.576Z,99.90
2018-04-16T23:51:56.956Z,99.90
2018-04-16T23:54:25.535Z,99.90
2018-04-16T23:57:12.642Z,99.90
2018-04-16T23:59:41.005Z,99.90
